Latest Weather Observations for Cape Naturaliste

IDW60801

Issued at 1:04 pm WST Sunday 26 February 2017 (issued every 30 minutes, with the page automatically refreshed every 10 minutes)

About weather observations | Map of weather stations | Latest weather observations for WA | Other Formats
Station Details ID: 009519 Name: CAPE NATURALISTE Lat: -33.54 Lon: 115.02 Height: 109.0 m
Data from the previous 72 hours. | See also: Recent months at Cape Naturaliste
Date/Time
WST
Temp
°C
App
Temp
°C
Dew
Point
°C
Rel
Hum
%
Delta-T
°C
Wind Press
QNH
hPa
Press
MSL
hPa
Rain since
9am
mm
Dir  Spd
km/h
Gust
km/h
Spd
kts
Gust
kts
26/01:00pm 23.2 17.9 15.3 61 4.7 SSW 37 52 20 28 1012.9 1012.5 0.0
26/12:30pm 22.6 17.5 14.7 61 4.7 SSW 35 50 19 27 1013.0 1012.6 0.0
26/12:00pm 23.1 18.0 15.7 63 4.5 SSW 37 46 20 25 1013.1 1012.7 0.0
26/11:30am 22.5 17.3 14.6 61 4.7 SSW 35 48 19 26 1013.4 1013.0 0.0
26/11:00am 22.4 17.3 13.7 58 5.1 SSW 33 46 18 25 1013.3 1012.9 0.0
26/10:30am 22.6 17.4 14.4 60 4.8 SSW 35 46 19 25 1013.3 1012.9 0.0
26/10:00am 21.6 16.9 14.3 63 4.3 SSW 32 43 17 23 1013.3 1012.9 0.0
26/09:30am 21.4 17.8 14.1 63 4.3 SSW 26 35 14 19 1013.3 1012.9 0.0
26/09:00am 21.6 18.8 14.3 63 4.3 S 22 30 12 16 1013.3 1012.9 0.0
26/08:30am 19.8 16.3 14.4 71 3.1 S 26 33 14 18 1013.6 1013.2 0.0
26/08:00am 18.1 14.6 14.6 80 2.0 S 26 33 14 18 1013.7 1013.3 0.0
26/07:30am 16.7 13.9 14.2 85 1.4 S 22 32 12 17 1013.7 1013.3 0.0
26/07:00am 15.6 13.4 13.4 87 1.2 SSW 17 22 9 12 1013.9 1013.5 0.0
26/06:30am 15.1 12.2 13.0 87 1.2 S 20 26 11 14 1013.1 1012.7 0.0
26/06:00am 15.0 12.1 12.9 87 1.2 SSW 20 26 11 14 1013.1 1012.7 0.0
26/05:30am 14.8 12.0 12.5 86 1.3 SSE 19 24 10 13 1012.4 1012.0 0.0
26/05:00am 14.9 12.1 12.6 86 1.3 S 19 28 10 15 1012.5 1012.1 0.0
26/04:30am 15.3 12.0 12.8 85 1.4 SSW 22 30 12 16 1012.5 1012.1 0.0
26/04:00am 14.9 12.8 12.4 85 1.4 S 15 20 8 11 1012.3 1011.9 0.0
26/03:30am 15.0 12.6 12.5 85 1.4 S 17 24 9 13 1012.4 1012.0 0.0
26/03:00am 15.3 12.0 12.8 85 1.4 S 22 28 12 15 1012.5 1012.1 0.0
26/02:30am 15.1 13.1 12.6 85 1.4 S 15 20 8 11 1012.8 1012.4 0.0
26/02:00am 15.4 13.1 12.9 85 1.4 SSE 17 24 9 13 1012.8 1012.4 0.0
26/01:30am 15.5 13.6 13.0 85 1.4 S 15 19 8 10 1013.1 1012.7 0.0
26/01:00am 15.8 13.2 13.3 85 1.4 S 19 24 10 13 1013.0 1012.6 0.0
26/12:30am 16.0 13.5 13.5 85 1.4 S 19 24 10 13 1013.2 1012.8 0.0
26/12:00am 16.2 13.7 13.5 84 1.5 S 19 30 10 16 1013.3 1012.9 0.0
 
Date/Time
WST
Temp
°C
App
Temp
°C
Dew
Point
°C
Rel
Hum
%
Delta-T
°C
Wind Press
QNH
hPa
Press
MSL
hPa
Rain since
9am
mm
Dir  Spd
km/h
Gust
km/h
Spd
kts
Gust
kts
25/11:30pm 16.7 12.7 14.2 85 1.4 S 28 41 15 22 1013.0 1012.6 0.0
25/11:00pm 16.9 13.4 14.4 85 1.4 S 26 35 14 19 1013.2 1012.8 0.0
25/10:30pm 17.0 14.3 14.6 86 1.4 S 22 35 12 19 1013.3 1012.9 0.0
25/10:00pm 17.2 13.4 14.8 86 1.4 S 28 35 15 19 1013.4 1013.0 0.0
25/09:30pm 17.5 14.3 15.3 87 1.3 SSW 26 37 14 20 1013.3 1012.9 0.0
25/09:00pm 18.1 13.0 15.9 87 1.3 SSW 37 46 20 25 1012.9 1012.5 0.0
25/08:30pm 18.6 14.1 16.4 87 1.3 SSW 35 44 19 24 1012.5 1012.1 0.0
25/08:00pm 18.7 14.6 16.5 87 1.3 SSW 33 44 18 24 1012.2 1011.8 0.0
25/07:30pm 18.9 14.4 16.5 86 1.4 SSW 35 46 19 25 1012.3 1011.9 0.0
25/07:00pm 19.0 14.4 16.2 84 1.7 SSW 35 43 19 23 1012.2 1011.8 0.0
25/06:30pm 19.7 14.8 16.3 81 2.0 SSW 37 50 20 27 1012.0 1011.6 0.0
25/06:00pm 20.9 16.9 16.1 74 2.9 SSW 32 39 17 21 1012.2 1011.8 0.0
25/05:30pm 22.8 20.0 16.4 67 3.9 SSW 26 37 14 20 1012.4 1012.0 0.0
25/05:00pm 24.6 23.0 16.6 61 4.9 SSW 20 26 11 14 1012.6 1012.2 0.0
25/04:30pm 25.3 23.6 16.2 57 5.6 SW 20 26 11 14 1012.8 1012.4 0.0
25/04:00pm 27.6 25.7 14.3 44 8.0 SW 17 24 9 13 1012.9 1012.5 0.0
25/03:30pm 28.6 27.3 13.7 40 8.9 SSW 13 19 7 10 1013.2 1012.8 0.0
25/03:00pm 29.1 27.8 14.9 42 8.7 WSW 15 20 8 11 1013.6 1013.2 0.0
25/02:30pm 30.4 26.7 9.3 27 11.9 NNW 19 24 10 13 1013.8 1013.4 0.0
25/02:00pm 30.3 26.3 8.1 25 12.2 N 19 24 10 13 1014.1 1013.7 0.0
25/01:30pm 30.2 25.9 8.0 25 12.2 N 20 28 11 15 1014.3 1013.9 0.0
25/01:00pm 29.6 25.1 6.9 24 12.2 N 20 26 11 14 1014.7 1014.3 0.0
25/12:30pm 30.2 26.0 7.4 24 12.4 N 19 26 10 14 1015.0 1014.6 0.0
25/12:00pm 30.4 26.2 7.6 24 12.5 NNE 19 24 10 13 1015.3 1014.9 0.0
25/11:30am 29.5 25.2 6.8 24 12.2 NNE 19 26 10 14 1015.6 1015.2 0.0
25/11:00am 29.6 25.6 8.1 26 11.8 NE 19 24 10 13 1016.0 1015.6 0.0
25/10:30am 29.4 25.5 8.5 27 11.5 NE 19 24 10 13 1016.2 1015.8 0.0
25/10:00am 29.0 25.0 9.2 29 11.0 NE 20 28 11 15 1016.2 1015.8 0.0
25/09:30am 28.4 24.5 8.7 29 10.9 ENE 19 26 10 14 1016.2 1015.8 0.0
25/09:00am 27.5 23.2 7.9 29 10.6 ENE 20 24 11 13 1016.2 1015.8 0.0
25/08:30am 27.0 23.5 8.9 32 9.9 ENE 17 24 9 13 1016.2 1015.8 0.0
25/08:00am 26.9 23.3 8.4 31 10.1 ENE 17 22 9 12 1016.3 1015.9 0.0
25/07:30am 25.6 22.3 9.4 36 8.9 E 17 24 9 13 1016.3 1015.9 0.0
25/07:00am 23.8 19.9 9.4 40 7.8 E 20 26 11 14 1016.0 1015.6 0.0
25/06:30am 22.2 18.4 9.7 45 6.8 E 20 24 11 13 1015.9 1015.5 0.0
25/06:00am 22.2 18.3 9.4 44 6.9 E 20 30 11 16 1015.8 1015.4 0.0
25/05:30am 22.3 18.5 9.8 45 6.8 E 20 28 11 15 1015.8 1015.4 0.0
25/05:00am 22.6 18.4 9.7 44 7.0 E 22 28 12 15 1015.6 1015.2 0.0
25/04:30am 22.7 18.4 9.5 43 7.2 ESE 22 28 12 15 1015.5 1015.1 0.0
25/04:00am 23.2 18.6 9.6 42 7.4 ESE 24 28 13 15 1015.5 1015.1 0.0
25/03:30am 23.4 19.2 9.8 42 7.4 ESE 22 26 12 14 1015.7 1015.3 0.0
25/03:00am 23.5 19.0 10.2 43 7.3 ESE 24 35 13 19 1015.8 1015.4 0.0
25/02:30am 22.9 18.4 10.0 44 7.1 ESE 24 30 13 16 1016.1 1015.7 0.0
25/02:00am 22.4 17.9 10.2 46 6.7 ESE 24 28 13 15 1016.3 1015.9 0.0
25/01:30am 21.9 17.4 10.1 47 6.4 SE 24 28 13 15 1016.5 1016.1 0.0
25/01:00am 22.1 18.1 10.3 47 6.5 SE 22 26 12 14 1016.8 1016.5 0.0
25/12:30am 22.1 18.5 10.6 48 6.3 SE 20 24 11 13 1017.2 1016.9 0.0
25/12:00am 22.3 18.4 10.8 48 6.4 SE 22 26 12 14 1017.8 1017.5 0.0
 
Date/Time
WST
Temp
°C
App
Temp
°C
Dew
Point
°C
Rel
Hum
%
Delta-T
°C
Wind Press
QNH
hPa
Press
MSL
hPa
Rain since
9am
mm
Dir  Spd
km/h
Gust
km/h
Spd
kts
Gust
kts
24/11:30pm 22.4 18.6 11.2 49 6.3 SE 22 30 12 16 1018.1 1017.8 0.0
24/11:00pm 22.6 18.5 11.4 49 6.3 SE 24 32 13 17 1018.2 1017.9 0.0
24/10:30pm 22.8 19.0 11.2 48 6.5 SE 22 30 12 16 1018.4 1018.1 0.0
24/10:00pm 22.9 19.3 11.9 50 6.2 SE 22 30 12 16 1018.5 1018.2 0.0
24/09:30pm 22.9 19.4 12.2 51 6.1 SSE 22 32 12 17 1018.5 1018.2 0.0
24/09:00pm 23.1 19.8 12.7 52 6.0 SSE 22 28 12 15 1018.6 1018.3 0.0
24/08:30pm 23.6 20.2 11.3 46 6.9 SSE 20 26 11 14 1018.5 1018.2 0.0
24/08:00pm 24.7 22.5 10.9 42 7.7 SSW 13 15 7 8 1018.2 1017.9 0.0
24/07:30pm 23.6 21.4 12.0 48 6.6 SSW 15 17 8 9 1018.2 1017.9 0.0
24/07:00pm 23.1 21.1 13.8 55 5.4 SSW 17 20 9 11 1018.0 1017.7 0.0
24/06:30pm 23.7 22.1 16.0 62 4.7 SW 19 24 10 13 1018.0 1017.7 0.0
24/06:00pm 24.5 22.7 16.0 59 5.2 SSW 20 32 11 17 1018.2 1017.9 0.0
24/05:30pm 28.1 26.9 14.0 42 8.5 SW 13 19 7 10 1018.2 1017.9 0.0
24/05:00pm 31.0 29.6 10.9 29 11.6 NE 9 11 5 6 1018.3 1018.0 0.0
24/04:30pm 31.4 29.7 11.2 29 11.8 NE 11 13 6 7 1018.3 1018.0 0.0
24/04:00pm 31.3 28.8 11.1 29 11.7 NE 15 17 8 9 1018.5 1018.2 0.0
24/03:30pm 31.9 29.6 11.7 29 11.9 NE 15 19 8 10 1018.7 1018.4 0.0
24/03:00pm 31.6 29.0 11.9 30 11.6 ENE 17 22 9 12 1018.8 1018.5 0.0
24/02:30pm 31.5 28.3 11.3 29 11.8 ENE 19 24 10 13 1019.1 1018.7 0.0
24/02:00pm 31.2 27.9 11.6 30 11.5 ENE 20 24 11 13 1019.6 1019.2 0.0
24/01:30pm 31.0 27.6 11.4 30 11.4 ENE 20 24 11 13 1019.9 1019.5 0.0
24/01:00pm 30.8 28.0 12.7 33 10.7 E 19 24 10 13 1020.2 1019.8 0.0
24/12:30pm 29.2 25.7 12.2 35 10.0 E 22 28 12 15 1020.4 1020.0 0.0
24/12:00pm 28.8 24.9 12.2 35 9.7 E 24 28 13 15 1020.6 1020.2 0.0
24/11:30am 27.0 22.9 12.6 41 8.4 E 26 33 14 18 1021.0 1020.6 0.0
24/11:00am 27.2 23.4 13.5 42 8.1 ESE 26 33 14 18 1021.3 1020.9 0.0
24/10:30am 26.0 21.8 13.5 46 7.4 ESE 28 35 15 19 1021.6 1021.2 0.0
24/10:00am 24.3 19.8 12.6 48 6.7 ESE 28 39 15 21 1021.7 1021.3 0.0
24/09:30am 23.5 19.0 13.7 54 5.7 ESE 30 39 16 21 1021.9 1021.5 0.0
24/09:00am 22.1 17.8 14.5 62 4.5 ESE 30 37 16 20 1022.1 1021.7 0.0
24/08:30am 20.8 16.4 14.0 65 4.0 ESE 30 39 16 21 1022.2 1021.8 0.0
24/08:00am 19.9 15.5 14.0 69 3.4 ESE 30 37 16 20 1022.1 1021.7 0.0
24/07:30am 18.9 14.9 14.2 74 2.7 ESE 28 35 15 19 1022.1 1021.7 0.0
24/07:00am 17.6 13.6 14.1 80 2.0 ESE 28 35 15 19 1022.0 1021.6 0.0
24/06:30am 16.2 12.0 13.5 84 1.5 ESE 28 33 15 18 1022.0 1021.6 0.0
24/06:00am 15.8 11.4 12.9 83 1.6 ESE 28 33 15 18 1021.8 1021.4 0.0
24/05:30am 15.9 11.5 12.8 82 1.7 ESE 28 32 15 17 1021.5 1021.1 0.0
24/05:00am 16.1 11.7 12.8 81 1.8 ESE 28 32 15 17 1021.4 1021.0 0.0
24/04:30am 16.4 11.6 12.9 80 2.0 ESE 30 33 16 18 1021.2 1020.8 0.0
24/04:00am 16.7 12.3 13.0 79 2.1 ESE 28 33 15 18 1021.2 1020.8 0.0
24/03:30am 16.9 12.5 12.8 77 2.3 ESE 28 33 15 18 1021.2 1020.8 0.0
24/03:00am 17.0 12.5 12.7 76 2.4 ESE 28 35 15 19 1021.2 1020.8 0.0
24/02:30am 17.1 12.3 12.8 76 2.4 ESE 30 37 16 20 1021.2 1020.8 0.0
24/02:00am 16.9 12.0 12.4 75 2.5 ESE 30 35 16 19 1021.2 1020.8 0.0
24/01:30am 17.0 12.0 12.3 74 2.6 ESE 30 35 16 19 1021.4 1021.0 0.0
24/01:00am 17.2 12.2 12.3 73 2.7 SE 30 37 16 20 1021.4 1021.0 0.0
24/12:30am 17.5 12.2 12.6 73 2.7 SE 32 41 17 22 1021.5 1021.1 0.0
24/12:00am 17.4 12.1 12.5 73 2.7 SE 32 43 17 23 1021.7 1021.3 0.0
 
Date/Time
WST
Temp
°C
App
Temp
°C
Dew
Point
°C
Rel
Hum
%
Delta-T
°C
Wind Press
QNH
hPa
Press
MSL
hPa
Rain since
9am
mm
Dir  Spd
km/h
Gust
km/h
Spd
kts
Gust
kts
23/11:30pm 17.3 12.5 12.8 75 2.5 SE 30 44 16 24 1021.9 1021.5 0.0
23/11:00pm 17.0 12.4 12.3 74 2.6 SE 28 39 15 21 1022.0 1021.6 0.0
23/10:30pm 17.2 12.7 12.7 75 2.5 SE 28 43 15 23 1022.1 1021.7 0.0
23/10:00pm 16.8 12.2 12.3 75 2.5 SSE 28 37 15 20 1022.1 1021.7 0.0
23/09:30pm 16.8 13.3 12.3 75 2.5 SSE 22 32 12 17 1022.2 1021.8 0.0
23/09:00pm 17.0 13.9 12.3 74 2.6 S 20 30 11 16 1022.1 1021.7 0.0
23/08:30pm 17.3 14.3 12.4 73 2.7 S 20 30 11 16 1021.9 1021.5 0.0
23/08:00pm 17.8 14.8 12.7 72 2.8 S 20 30 11 16 1021.7 1021.3 0.0
23/07:30pm 18.4 16.0 14.3 77 2.4 S 20 28 11 15 1021.6 1021.2 0.0
23/07:00pm 18.5 15.6 14.0 75 2.6 S 22 32 12 17 1021.5 1021.1 0.0
23/06:30pm 19.3 14.8 13.9 71 3.1 SSW 30 41 16 22 1021.2 1020.8 0.0
23/06:00pm 19.7 14.9 13.9 69 3.3 SSW 32 39 17 21 1021.1 1020.7 0.0
23/05:30pm 20.3 15.3 14.0 67 3.7 SSW 33 46 18 25 1021.0 1020.6 0.0
23/05:00pm 20.8 16.4 14.0 65 3.9 SSW 30 41 16 22 1021.1 1020.7 0.0
23/04:30pm 20.8 16.2 13.5 63 4.2 SSW 30 41 16 22 1020.9 1020.5 0.0
23/04:00pm 21.5 17.4 13.7 61 4.5 SSW 28 41 15 22 1021.0 1020.6 0.0
23/03:30pm 21.9 18.2 13.8 60 4.7 SW 26 35 14 19 1021.3 1020.9 0.0
23/03:00pm 22.5 19.0 14.4 60 4.8 SW 26 33 14 18 1021.4 1021.0 0.0
23/02:30pm 22.9 19.6 13.9 57 5.3 SW 24 32 13 17 1021.7 1021.3 0.0
23/02:00pm 23.2 20.4 14.2 57 5.3 SW 22 30 12 16 1021.9 1021.5 0.0
23/01:30pm 22.4 19.5 12.9 55 5.5 SW 20 28 11 15 1022.2 1021.8 0.0

Other Formats:

Comma delimited format used in spreadsheet applications
http://www.bom.gov.au/fwo/IDW60801/IDW60801.94600.axf

JavaScript Object Notation format (JSON) in row-major order
http://www.bom.gov.au/fwo/IDW60801/IDW60801.94600.json